createdAt,value
2019-01-15T00:01:57.518Z,2.00
2019-01-15T00:04:01.314Z,2.10
2019-01-15T00:06:05.604Z,2.10
2019-01-15T00:08:09.583Z,2.10
2019-01-15T00:10:13.546Z,2.10
2019-01-15T00:12:17.346Z,2.20
2019-01-15T00:14:21.271Z,2.20
2019-01-15T00:16:25.168Z,2.20
2019-01-15T00:18:29.286Z,2.30
2019-01-15T00:20:33.402Z,2.30
2019-01-15T00:22:37.280Z,2.30
2019-01-15T00:24:41.058Z,2.30
2019-01-15T00:26:44.935Z,2.30
2019-01-15T00:28:48.997Z,2.30
2019-01-15T00:30:52.780Z,2.40
2019-01-15T00:32:56.587Z,2.40
2019-01-15T00:35:00.457Z,2.40
2019-01-15T00:37:04.403Z,2.40
2019-01-15T00:39:08.573Z,2.40
2019-01-15T00:41:12.427Z,2.40
2019-01-15T00:43:16.494Z,2.40
2019-01-15T00:45:20.275Z,2.40
2019-01-15T00:47:24.051Z,2.50
2019-01-15T00:49:28.187Z,2.50
2019-01-15T00:51:32.234Z,2.50
2019-01-15T00:53:36.035Z,2.60
2019-01-15T00:55:39.847Z,2.60
2019-01-15T00:57:43.718Z,2.60
2019-01-15T00:59:47.506Z,2.70
2019-01-15T01:01:51.462Z,2.70
2019-01-15T01:03:55.530Z,2.80
2019-01-15T01:05:59.458Z,2.80
2019-01-15T01:08:03.979Z,2.80
2019-01-15T01:10:09.182Z,2.90
2019-01-15T01:12:12.971Z,2.90
2019-01-15T01:14:17.172Z,2.90
2019-01-15T01:16:20.972Z,2.90
2019-01-15T01:18:24.898Z,3.00
2019-01-15T01:20:28.687Z,3.00
2019-01-15T01:22:32.619Z,3.00
2019-01-15T01:24:36.431Z,3.00
2019-01-15T01:26:40.311Z,3.00
2019-01-15T01:28:44.083Z,3.00
2019-01-15T01:30:47.982Z,3.00
2019-01-15T01:32:51.981Z,3.00
2019-01-15T01:34:55.784Z,3.10
2019-01-15T01:36:59.698Z,3.10
2019-01-15T01:39:05.127Z,3.10
2019-01-15T01:41:08.990Z,3.10
2019-01-15T01:43:12.938Z,3.10
2019-01-15T01:45:17.523Z,3.10
2019-01-15T01:47:21.317Z,3.10
2019-01-15T01:49:25.106Z,3.20
2019-01-15T01:51:29.048Z,3.20
2019-01-15T01:53:32.906Z,3.20
2019-01-15T01:55:36.703Z,3.20
2019-01-15T01:57:40.523Z,3.20
2019-01-15T01:59:44.571Z,3.20
2019-01-15T02:01:48.531Z,3.20
2019-01-15T02:03:52.227Z,3.10
2019-01-15T02:05:55.938Z,3.10
2019-01-15T02:07:59.864Z,3.10
2019-01-15T02:10:03.722Z,3.10
2019-01-15T02:12:07.414Z,3.10
2019-01-15T02:14:11.459Z,3.10
2019-01-15T02:16:15.176Z,3.10
2019-01-15T02:18:18.864Z,3.10
2019-01-15T02:20:22.728Z,3.10
2019-01-15T02:22:26.430Z,3.10
2019-01-15T02:24:30.511Z,3.10
2019-01-15T02:26:34.257Z,3.10
2019-01-15T02:28:37.971Z,3.10
2019-01-15T02:30:41.739Z,3.10
2019-01-15T02:32:45.813Z,3.10
2019-01-15T02:34:49.499Z,3.10
2019-01-15T02:36:53.315Z,3.10
2019-01-15T02:38:57.012Z,3.10
2019-01-15T02:41:00.972Z,3.10
2019-01-15T02:43:05.301Z,3.10
2019-01-15T02:45:10.865Z,3.10
2019-01-15T02:47:14.651Z,3.20
2019-01-15T02:49:18.412Z,3.20
2019-01-15T02:51:22.119Z,3.20
2019-01-15T02:53:25.823Z,3.20
2019-01-15T02:55:29.773Z,3.20
2019-01-15T02:57:33.470Z,3.20
2019-01-15T02:59:37.167Z,3.20
2019-01-15T03:01:40.867Z,3.20
2019-01-15T03:03:44.564Z,3.20
2019-01-15T03:05:48.275Z,3.30
2019-01-15T03:07:52.143Z,3.30
2019-01-15T03:09:56.111Z,3.30
2019-01-15T03:11:59.803Z,3.30
2019-01-15T03:14:03.515Z,3.30
2019-01-15T03:16:07.352Z,3.30
2019-01-15T03:18:11.056Z,3.30
2019-01-15T03:20:15.451Z,3.30
2019-01-15T03:22:19.143Z,3.30
2019-01-15T03:24:22.862Z,3.30
2019-01-15T03:26:26.564Z,3.40
2019-01-15T03:28:30.268Z,3.30
2019-01-15T03:30:34.207Z,3.40
2019-01-15T03:32:38.158Z,3.40
2019-01-15T03:34:42.339Z,3.40
2019-01-15T03:36:46.276Z,3.40
2019-01-15T03:38:50.453Z,3.40
2019-01-15T03:40:54.152Z,3.40
2019-01-15T03:43:03.561Z,3.40
2019-01-15T03:45:05.114Z,3.40
2019-01-15T03:47:08.934Z,3.40
2019-01-15T03:49:13.120Z,3.40
2019-01-15T03:51:17.104Z,3.30
2019-01-15T03:53:20.859Z,3.30
2019-01-15T03:55:24.734Z,3.30
2019-01-15T03:57:28.519Z,3.40
2019-01-15T03:59:32.223Z,3.40
2019-01-15T04:01:36.342Z,3.40
2019-01-15T04:03:40.146Z,3.40
2019-01-15T04:05:44.016Z,3.40
2019-01-15T04:07:49.581Z,3.40
2019-01-15T04:09:53.472Z,3.40
2019-01-15T04:11:57.274Z,3.40
2019-01-15T04:14:01.174Z,3.50
2019-01-15T04:16:05.051Z,3.40
2019-01-15T04:18:09.265Z,3.40
2019-01-15T04:20:14.053Z,3.40
2019-01-15T04:22:17.848Z,3.40
2019-01-15T04:24:21.799Z,3.40
2019-01-15T04:26:25.597Z,3.40
2019-01-15T04:28:29.696Z,3.40
2019-01-15T04:30:33.628Z,3.40
2019-01-15T04:32:37.746Z,3.40
2019-01-15T04:34:41.663Z,3.50
2019-01-15T04:36:45.786Z,3.50
2019-01-15T04:38:49.575Z,3.50
2019-01-15T04:40:53.707Z,3.50
2019-01-15T04:42:57.579Z,3.50
2019-01-15T04:45:01.456Z,3.50
2019-01-15T04:47:05.390Z,3.50
2019-01-15T04:49:09.256Z,3.50
2019-01-15T04:51:13.327Z,3.50
2019-01-15T04:53:17.148Z,3.60
2019-01-15T04:55:21.378Z,3.50
2019-01-15T04:57:25.256Z,3.60
2019-01-15T04:59:29.758Z,3.60
2019-01-15T05:01:33.644Z,3.60
2019-01-15T05:03:37.699Z,3.60
2019-01-15T05:05:41.550Z,3.60
2019-01-15T05:07:45.555Z,3.60
2019-01-15T05:09:49.475Z,3.70
2019-01-15T05:11:54.014Z,3.70
2019-01-15T05:13:57.891Z,3.70
2019-01-15T05:16:01.848Z,3.70
2019-01-15T05:18:05.854Z,3.70
2019-01-15T05:20:11.372Z,3.70
2019-01-15T05:22:15.362Z,3.70
2019-01-15T05:24:20.315Z,3.70
2019-01-15T05:26:24.228Z,3.70
2019-01-15T05:28:28.234Z,3.80
2019-01-15T05:30:32.108Z,3.80
2019-01-15T05:32:36.062Z,3.90
2019-01-15T05:34:39.917Z,3.90
2019-01-15T05:36:43.781Z,3.90
2019-01-15T05:38:47.787Z,4.00
2019-01-15T05:40:51.690Z,4.00
2019-01-15T05:42:55.654Z,4.00
2019-01-15T05:45:00.095Z,4.00
2019-01-15T05:47:05.037Z,4.00
2019-01-15T05:49:08.988Z,4.00
2019-01-15T05:51:32.300Z,4.10
2019-01-15T05:53:36.247Z,4.10
2019-01-15T05:57:43.864Z,4.20
2019-01-15T05:59:48.039Z,4.20
2019-01-15T06:01:55.044Z,4.20
2019-01-15T06:03:59.139Z,4.30
2019-01-15T06:06:10.622Z,4.30
2019-01-15T06:08:14.563Z,4.30
2019-01-15T06:10:18.471Z,4.30
2019-01-15T06:12:22.254Z,4.30
2019-01-15T06:14:26.203Z,4.30
2019-01-15T06:16:30.448Z,4.30
2019-01-15T06:18:34.354Z,4.40
2019-01-15T06:20:38.322Z,4.40
2019-01-15T06:22:42.370Z,4.40
2019-01-15T06:24:46.327Z,4.40
2019-01-15T06:26:50.221Z,4.40
2019-01-15T06:28:54.901Z,4.40
2019-01-15T06:30:58.979Z,4.40
2019-01-15T06:33:02.962Z,4.40
2019-01-15T06:35:07.271Z,4.50
2019-01-15T06:37:11.135Z,4.50
2019-01-15T06:39:15.171Z,4.50
2019-01-15T06:41:19.094Z,4.50
2019-01-15T06:43:23.035Z,4.50
2019-01-15T06:45:26.947Z,4.50
2019-01-15T06:47:30.878Z,4.60
2019-01-15T06:49:34.992Z,4.60
2019-01-15T06:51:39.207Z,4.60
2019-01-15T06:53:42.987Z,4.60
2019-01-15T06:55:46.854Z,4.70
2019-01-15T06:57:50.790Z,4.70
2019-01-15T06:59:55.044Z,4.70
2019-01-15T07:01:59.007Z,4.70
2019-01-15T07:04:02.874Z,4.70
2019-01-15T07:06:06.820Z,4.80
2019-01-15T07:08:10.777Z,4.80
2019-01-15T07:10:17.690Z,4.80
2019-01-15T07:12:21.549Z,4.80
2019-01-15T07:14:25.646Z,4.80
2019-01-15T07:16:29.714Z,4.80
2019-01-15T07:18:33.574Z,4.90
2019-01-15T07:22:40.782Z,5.00
2019-01-15T07:24:44.644Z,4.90
2019-01-15T07:26:48.562Z,5.00
2019-01-15T07:28:52.430Z,5.10
2019-01-15T07:31:00.177Z,5.10
2019-01-15T07:33:04.378Z,5.10
2019-01-15T07:35:08.808Z,5.10
2019-01-15T07:37:12.670Z,5.20
2019-01-15T07:39:16.736Z,5.20
2019-01-15T07:41:20.513Z,5.20
2019-01-15T07:45:27.687Z,5.30
2019-01-15T07:47:31.769Z,5.40
2019-01-15T07:49:35.874Z,5.40
2019-01-15T07:51:39.726Z,5.40
2019-01-15T07:53:43.874Z,5.40
2019-01-15T07:55:47.806Z,5.40
2019-01-15T07:57:51.741Z,5.40
2019-01-15T07:59:55.535Z,5.40
2019-01-15T08:01:59.564Z,5.40
2019-01-15T08:04:03.687Z,5.40
2019-01-15T08:08:10.964Z,5.50
2019-01-15T08:10:15.594Z,5.60
2019-01-15T08:12:20.660Z,5.60
2019-01-15T08:14:24.535Z,5.60
2019-01-15T08:16:28.803Z,5.60
2019-01-15T08:18:32.818Z,5.70
2019-01-15T08:20:36.687Z,5.70
2019-01-15T08:22:40.874Z,5.80
2019-01-15T08:24:44.735Z,5.80
2019-01-15T08:26:48.517Z,5.90
2019-01-15T08:28:52.372Z,5.90
2019-01-15T08:30:56.158Z,6.00
2019-01-15T08:33:00.106Z,6.00
2019-01-15T08:35:04.318Z,6.10
2019-01-15T08:37:08.179Z,6.20
2019-01-15T08:39:11.949Z,6.20
2019-01-15T08:41:15.734Z,6.30
2019-01-15T08:43:19.532Z,6.30
2019-01-15T08:45:23.400Z,6.40
2019-01-15T08:47:28.823Z,6.40
2019-01-15T08:49:32.858Z,6.50
2019-01-15T08:51:37.007Z,6.50
2019-01-15T08:53:41.260Z,6.50
2019-01-15T08:55:45.383Z,6.50
2019-01-15T08:57:49.415Z,6.60
2019-01-15T08:59:53.444Z,6.50
2019-01-15T09:01:57.374Z,6.60
2019-01-15T09:04:01.160Z,6.60
2019-01-15T09:06:05.613Z,6.60
2019-01-15T09:08:09.475Z,6.60
2019-01-15T09:10:14.398Z,6.70
2019-01-15T09:12:18.266Z,6.70
2019-01-15T09:14:26.735Z,6.80
2019-01-15T09:16:27.706Z,6.90
2019-01-15T09:18:31.630Z,7.00
2019-01-15T09:20:36.051Z,7.00
2019-01-15T09:22:40.262Z,6.30
2019-01-15T09:24:44.443Z,7.00
2019-01-15T09:28:51.786Z,7.20
2019-01-15T09:30:55.775Z,7.30
2019-01-15T09:32:59.609Z,7.20
2019-01-15T09:35:03.471Z,7.20
2019-01-15T09:37:09.123Z,7.20
2019-01-15T09:39:13.050Z,7.20
2019-01-15T09:41:16.818Z,7.30
2019-01-15T09:43:20.610Z,7.30
2019-01-15T09:45:25.010Z,7.40
2019-01-15T09:47:28.955Z,7.40
2019-01-15T09:49:32.818Z,7.40
2019-01-15T09:51:36.864Z,7.50
2019-01-15T09:53:40.974Z,7.60
2019-01-15T09:55:44.839Z,7.60
2019-01-15T09:57:48.634Z,7.60
2019-01-15T09:59:52.733Z,7.70
2019-01-15T10:01:56.922Z,7.60
2019-01-15T10:04:00.966Z,7.70
2019-01-15T10:06:04.978Z,7.60
2019-01-15T10:08:08.902Z,7.60
2019-01-15T10:10:12.983Z,7.60
2019-01-15T10:12:16.838Z,7.60
2019-01-15T10:14:20.882Z,7.70
2019-01-15T10:16:24.666Z,7.70
2019-01-15T10:18:28.810Z,7.70
2019-01-15T10:20:32.667Z,7.70
2019-01-15T10:22:36.770Z,7.60
2019-01-15T10:24:41.018Z,7.50
2019-01-15T10:26:44.871Z,7.50
2019-01-15T10:28:48.687Z,7.50
2019-01-15T10:31:36.770Z,7.50
2019-01-15T10:33:45.345Z,7.50
2019-01-15T10:35:58.464Z,7.60
2019-01-15T10:38:02.314Z,7.60
2019-01-15T10:40:06.563Z,7.60
2019-01-15T10:42:10.422Z,7.60
2019-01-15T10:44:14.366Z,7.50
2019-01-15T10:46:21.372Z,7.50
2019-01-15T10:48:24.135Z,7.50
2019-01-15T10:50:28.330Z,7.60
2019-01-15T10:52:32.262Z,7.60
2019-01-15T10:54:36.045Z,7.70
2019-01-15T10:56:39.905Z,7.80
2019-01-15T10:58:44.087Z,7.90
2019-01-15T11:00:48.026Z,7.90
2019-01-15T11:02:51.884Z,8.00
2019-01-15T11:04:56.593Z,8.00
2019-01-15T11:07:00.698Z,8.00
2019-01-15T11:09:07.834Z,8.00
2019-01-15T11:11:11.700Z,8.00
2019-01-15T11:13:15.565Z,8.00
2019-01-15T11:15:19.359Z,7.90
2019-01-15T11:17:23.225Z,7.90
2019-01-15T11:19:27.223Z,8.00
2019-01-15T11:21:31.167Z,8.00
2019-01-15T11:23:35.106Z,8.10
2019-01-15T11:29:45.691Z,8.40
2019-01-15T11:31:49.490Z,8.60
2019-01-15T11:33:53.522Z,8.50
2019-01-15T11:35:57.391Z,8.50
2019-01-15T11:38:01.255Z,8.60
2019-01-15T11:40:06.617Z,8.60
2019-01-15T11:42:10.739Z,8.60
2019-01-15T11:44:14.662Z,8.60
2019-01-15T11:46:18.550Z,8.60
2019-01-15T11:48:22.424Z,8.60
2019-01-15T11:50:26.366Z,8.60
2019-01-15T11:52:30.227Z,8.60
2019-01-15T11:54:34.006Z,8.60
2019-01-15T11:56:37.862Z,8.50
2019-01-15T11:58:41.814Z,8.50
2019-01-15T12:01:07.688Z,8.50
2019-01-15T12:03:39.886Z,8.50
2019-01-15T12:06:08.502Z,8.40
2019-01-15T12:08:34.699Z,8.30
2019-01-15T12:11:05.134Z,8.20
2019-01-15T12:13:18.178Z,8.20
2019-01-15T12:15:39.767Z,8.20
2019-01-15T12:18:02.795Z,8.20
2019-01-15T12:20:27.866Z,8.30
2019-01-15T12:22:45.260Z,8.40
2019-01-15T12:25:13.113Z,8.40
2019-01-15T12:27:48.321Z,8.30
2019-01-15T12:30:06.706Z,8.30
2019-01-15T12:32:28.318Z,8.30
2019-01-15T12:34:44.085Z,8.30
2019-01-15T12:36:56.336Z,8.30
2019-01-15T12:39:26.554Z,8.30
2019-01-15T12:41:40.311Z,8.40
2019-01-15T12:44:12.294Z,8.50
2019-01-15T12:46:44.030Z,8.60
2019-01-15T12:49:05.319Z,8.70
2019-01-15T12:51:26.918Z,8.70
2019-01-15T12:53:49.872Z,8.60
2019-01-15T12:56:02.233Z,8.50
2019-01-15T12:58:33.250Z,8.50
2019-01-15T13:01:02.086Z,8.50
2019-01-15T13:03:34.945Z,8.50
2019-01-15T13:06:16.050Z,8.40
2019-01-15T13:08:39.175Z,8.40
2019-01-15T13:11:11.534Z,8.40
2019-01-15T13:13:42.850Z,8.30
2019-01-15T13:16:04.459Z,8.30
2019-01-15T13:18:30.410Z,8.30
2019-01-15T13:20:45.102Z,8.20
2019-01-15T13:23:12.180Z,8.30
2019-01-15T13:25:49.964Z,8.40
2019-01-15T13:28:07.028Z,8.40
2019-01-15T13:30:31.603Z,8.60
2019-01-15T13:32:43.978Z,8.70
2019-01-15T13:35:05.855Z,8.60
2019-01-15T13:37:20.899Z,8.70
2019-01-15T13:39:53.034Z,8.80
2019-01-15T13:42:14.676Z,8.80
2019-01-15T13:44:36.457Z,8.80
2019-01-15T13:46:51.566Z,8.80
2019-01-15T13:49:13.020Z,8.70
2019-01-15T13:51:54.108Z,8.70
2019-01-15T13:54:19.234Z,8.70
2019-01-15T13:56:41.651Z,8.60
2019-01-15T13:59:03.018Z,8.60
2019-01-15T14:01:16.139Z,8.50
2019-01-15T14:03:30.706Z,8.50
2019-01-15T14:05:53.718Z,8.50
2019-01-15T14:08:23.775Z,8.40
2019-01-15T14:10:45.243Z,8.30
2019-01-15T14:13:08.251Z,8.30
2019-01-15T14:15:29.761Z,8.20
2019-01-15T14:18:00.286Z,8.20
2019-01-15T14:20:30.332Z,8.20
2019-01-15T14:23:00.541Z,8.20
2019-01-15T14:25:31.986Z,8.10
2019-01-15T14:27:53.459Z,8.10
2019-01-15T14:30:06.947Z,8.10
2019-01-15T14:35:10.552Z,8.10
2019-01-15T14:37:36.522Z,8.00
2019-01-15T14:39:59.478Z,8.00
2019-01-15T14:42:22.598Z,8.00
2019-01-15T14:44:48.330Z,8.00
2019-01-15T14:47:17.109Z,8.00
2019-01-15T14:49:40.909Z,7.90
2019-01-15T14:52:09.757Z,7.90
2019-01-15T14:54:27.455Z,7.90
2019-01-15T14:56:41.719Z,7.90
2019-01-15T14:59:03.288Z,7.90
2019-01-15T15:01:20.800Z,7.90
2019-01-15T15:03:42.197Z,7.90
2019-01-15T15:06:08.151Z,7.90
2019-01-15T15:08:29.727Z,7.80
2019-01-15T15:10:40.579Z,7.80
2019-01-15T15:13:02.302Z,7.80
2019-01-15T15:15:24.442Z,7.80
2019-01-15T15:17:47.173Z,7.80
2019-01-15T15:20:07.694Z,7.80
2019-01-15T15:22:42.591Z,7.80
2019-01-15T15:25:14.387Z,7.80
2019-01-15T15:27:35.735Z,7.80
2019-01-15T15:29:57.422Z,7.80
2019-01-15T15:32:32.531Z,7.80
2019-01-15T15:35:01.838Z,7.80
2019-01-15T15:37:35.106Z,7.80
2019-01-15T15:39:57.347Z,7.70
2019-01-15T15:42:18.787Z,7.70
2019-01-15T15:44:42.342Z,7.70
2019-01-15T15:47:08.172Z,7.70
2019-01-15T15:49:31.454Z,7.60
2019-01-15T15:51:47.986Z,7.60
2019-01-15T15:54:19.698Z,7.60
2019-01-15T15:56:36.404Z,7.60
2019-01-15T15:58:59.282Z,7.60
2019-01-15T16:01:25.174Z,7.60
2019-01-15T16:03:44.531Z,7.60
2019-01-15T16:06:16.821Z,7.60
2019-01-15T16:08:51.779Z,7.60
2019-01-15T16:11:11.838Z,7.60
2019-01-15T16:13:35.051Z,7.50
2019-01-15T16:15:56.350Z,7.50
2019-01-15T16:18:22.353Z,7.50
2019-01-15T16:20:38.026Z,7.60
2019-01-15T16:22:55.242Z,7.50
2019-01-15T16:25:24.160Z,7.50
2019-01-15T16:27:56.367Z,7.50
2019-01-15T16:30:17.946Z,7.50
2019-01-15T16:32:50.018Z,7.50
2019-01-15T16:35:27.854Z,7.60
2019-01-15T16:37:39.495Z,7.60
2019-01-15T16:39:55.411Z,7.60
2019-01-15T16:42:13.107Z,7.60
2019-01-15T16:44:46.863Z,7.60
2019-01-15T16:47:08.257Z,7.60
2019-01-15T16:49:23.709Z,7.60
2019-01-15T16:51:46.829Z,7.50
2019-01-15T16:54:08.363Z,7.60
2019-01-15T16:56:29.990Z,7.60
2019-01-15T16:58:59.114Z,7.60
2019-01-15T17:01:20.539Z,7.60
2019-01-15T17:03:42.130Z,7.60
2019-01-15T17:06:03.791Z,7.60
2019-01-15T17:08:25.372Z,7.60
2019-01-15T17:10:54.242Z,7.50
2019-01-15T17:13:19.956Z,7.50
2019-01-15T17:15:39.730Z,7.50
2019-01-15T17:18:08.730Z,7.50
2019-01-15T17:20:40.651Z,7.50
2019-01-15T17:23:13.193Z,7.50
2019-01-15T17:25:42.404Z,7.50
2019-01-15T17:27:54.455Z,7.60
2019-01-15T17:30:11.551Z,7.60
2019-01-15T17:32:40.663Z,7.60
2019-01-15T17:35:03.914Z,7.60
2019-01-15T17:37:21.939Z,7.60
2019-01-15T17:39:44.908Z,7.60
2019-01-15T17:42:06.763Z,7.60
2019-01-15T17:44:32.843Z,7.60
2019-01-15T17:46:54.396Z,7.60
2019-01-15T17:49:20.371Z,7.50
2019-01-15T17:52:01.147Z,7.50
2019-01-15T17:54:27.059Z,7.50
2019-01-15T17:56:49.025Z,7.50
2019-01-15T17:59:10.475Z,7.50
2019-01-15T18:01:32.166Z,7.60
2019-01-15T18:03:53.487Z,7.60
2019-01-15T18:06:13.866Z,7.60
2019-01-15T18:08:42.822Z,7.50
2019-01-15T18:11:14.651Z,7.50
2019-01-15T18:13:40.791Z,7.60
2019-01-15T18:16:02.396Z,7.50
2019-01-15T18:18:29.022Z,7.50
2019-01-15T18:20:54.915Z,7.50
2019-01-15T18:23:15.605Z,7.60
2019-01-15T18:25:39.540Z,7.60
2019-01-15T18:28:00.035Z,7.60
2019-01-15T18:30:32.414Z,7.60
2019-01-15T18:32:50.100Z,7.60
2019-01-15T18:35:12.984Z,7.60
2019-01-15T18:37:34.681Z,7.60
2019-01-15T18:40:09.736Z,7.60
2019-01-15T18:42:32.997Z,7.60
2019-01-15T18:45:05.221Z,7.70
2019-01-15T18:47:37.175Z,7.70
2019-01-15T18:50:12.226Z,7.70
2019-01-15T18:52:33.572Z,7.60
2019-01-15T18:54:56.817Z,7.60
2019-01-15T18:57:15.347Z,7.60
2019-01-15T18:59:32.721Z,7.50
2019-01-15T19:01:46.851Z,7.50
2019-01-15T19:04:03.170Z,7.50
2019-01-15T19:06:35.259Z,7.50
2019-01-15T19:08:56.649Z,7.50
2019-01-15T19:11:19.598Z,7.50
2019-01-15T19:13:39.784Z,7.50
2019-01-15T19:16:02.798Z,7.50
2019-01-15T19:18:24.291Z,7.40
2019-01-15T19:20:38.375Z,7.40
2019-01-15T19:23:04.056Z,7.40
2019-01-15T19:25:33.090Z,7.30
2019-01-15T19:28:04.870Z,7.30
2019-01-15T19:30:48.467Z,7.20
2019-01-15T19:33:11.798Z,7.20
2019-01-15T19:35:38.595Z,7.20
2019-01-15T19:38:00.500Z,7.20
2019-01-15T19:40:29.756Z,7.20
2019-01-15T19:42:53.195Z,7.20
2019-01-15T19:45:15.118Z,7.20
2019-01-15T19:47:36.732Z,7.20
2019-01-15T19:49:58.534Z,7.20
2019-01-15T19:52:20.119Z,7.20
2019-01-15T19:55:01.210Z,7.20
2019-01-15T19:57:32.886Z,7.20
2019-01-15T19:59:52.231Z,7.20
2019-01-15T20:02:22.520Z,7.20
2019-01-15T20:04:45.745Z,7.20
2019-01-15T20:07:07.582Z,7.20
2019-01-15T20:09:24.279Z,7.20
2019-01-15T20:11:47.142Z,7.30
2019-01-15T20:14:54.423Z,7.30
2019-01-15T20:17:18.726Z,7.30
2019-01-15T20:19:51.978Z,7.30
2019-01-15T20:22:16.681Z,7.30
2019-01-15T20:24:39.618Z,7.40
2019-01-15T20:27:01.047Z,7.40
2019-01-15T20:29:27.296Z,7.40
2019-01-15T20:31:48.642Z,7.40
2019-01-15T20:34:26.903Z,7.40
2019-01-15T20:40:09.279Z,7.40
2019-01-15T20:42:41.289Z,7.50
2019-01-15T20:45:08.861Z,7.50
2019-01-15T20:50:44.992Z,7.50
2019-01-15T20:57:03.221Z,7.60
2019-01-15T21:12:52.511Z,7.60
2019-01-15T21:15:30.679Z,7.70
2019-01-15T21:17:52.167Z,7.60
2019-01-15T21:20:13.894Z,7.60
2019-01-15T21:22:36.874Z,7.60
2019-01-15T21:25:02.878Z,7.70
2019-01-15T21:27:16.106Z,7.70
2019-01-15T21:29:29.067Z,7.70
2019-01-15T21:31:50.771Z,7.70
2019-01-15T21:34:13.801Z,7.70
2019-01-15T21:36:35.148Z,7.70
2019-01-15T21:39:04.367Z,7.70
2019-01-15T21:41:42.755Z,7.70
2019-01-15T21:44:12.610Z,7.70
2019-01-15T21:46:35.175Z,7.70
2019-01-15T21:49:16.363Z,7.70
2019-01-15T21:51:37.743Z,7.70
2019-01-15T21:54:03.632Z,7.70
2019-01-15T21:56:26.901Z,7.70
2019-01-15T21:58:46.103Z,7.70
2019-01-15T22:01:07.447Z,7.70
2019-01-15T22:03:36.532Z,7.70
2019-01-15T22:05:49.347Z,7.70
2019-01-15T22:08:11.955Z,7.70
2019-01-15T22:10:33.126Z,7.70
2019-01-15T22:12:52.736Z,7.70
2019-01-15T22:15:09.618Z,7.80
2019-01-15T22:17:20.003Z,7.70
2019-01-15T22:19:58.054Z,7.70
2019-01-15T22:22:20.935Z,7.70
2019-01-15T22:24:37.242Z,7.70
2019-01-15T22:27:03.162Z,7.70
2019-01-15T22:29:30.216Z,7.70
2019-01-15T22:31:51.774Z,7.70
2019-01-15T22:34:17.763Z,7.70
2019-01-15T22:36:34.400Z,7.70
2019-01-15T22:38:51.525Z,7.70
2019-01-15T22:41:17.226Z,7.70
2019-01-15T22:43:37.451Z,7.80
2019-01-15T22:45:58.815Z,7.80
2019-01-15T22:48:36.968Z,7.70
2019-01-15T22:50:58.264Z,7.70
2019-01-15T22:53:19.875Z,7.70
2019-01-15T22:55:35.175Z,7.70
2019-01-15T22:57:50.659Z,7.60
2019-01-15T23:00:12.286Z,7.60
2019-01-15T23:02:38.327Z,7.60
2019-01-15T23:04:57.848Z,7.60
2019-01-15T23:07:33.780Z,7.60
2019-01-15T23:09:48.575Z,7.60
2019-01-15T23:12:10.218Z,7.60
2019-01-15T23:14:32.675Z,7.60
2019-01-15T23:16:58.411Z,7.60
2019-01-15T23:19:19.852Z,7.60
2019-01-15T23:21:38.213Z,7.60
2019-01-15T23:24:01.383Z,7.60
2019-01-15T23:26:30.425Z,7.60
2019-01-15T23:28:52.078Z,7.60
2019-01-15T23:31:09.878Z,7.60
2019-01-15T23:33:32.866Z,7.50
2019-01-15T23:35:50.330Z,7.60
2019-01-15T23:38:25.159Z,7.50
2019-01-15T23:41:03.038Z,7.50
2019-01-15T23:43:36.128Z,7.50
2019-01-15T23:45:57.498Z,7.50
2019-01-15T23:48:11.462Z,7.50
2019-01-15T23:50:33.598Z,7.50
2019-01-15T23:53:08.491Z,7.60
2019-01-15T23:55:26.034Z,7.60
2019-01-15T23:57:40.058Z,7.60
